Time;durP1;ratioP1;P1;durP2;ratioP2;P2;SDS_P1;SDS_P2;PMS_P1;PMS_P2;Temp;Humidity;BMP_temperature;BMP_pressure;BME280_temperature;BME280_humidity;BME280_pressure;Samples;Min_cycle;Max_cycle;Signal;HPM_P1;HPM_P2
2021/11/16 00:02:18;;;;;;;44.85;21.35;;;7.20;99.90;;;;;;5052392;28;20053;-66
2021/11/16 00:04:47;;;;;;;46.83;22.60;;;7.20;99.90;;;;;;5052349;28;20341;-68
2021/11/16 00:07:14;;;;;;;46.08;20.10;;;7.20;99.90;;;;;;5051988;28;20111;-66
2021/11/16 00:09:41;;;;;;;56.47;23.27;;;7.20;99.90;;;;;;5044131;28;20053;-66
2021/11/16 00:12:08;;;;;;;54.03;22.40;;;7.20;99.90;;;;;;5052157;28;20087;-67
2021/11/16 00:14:35;;;;;;;44.58;20.58;;;7.20;99.90;;;;;;5052447;28;20562;-66
2021/11/16 00:17:04;;;;;;;46.53;21.92;;;7.20;99.90;;;;;;5052214;28;20562;-67
2021/11/16 00:19:31;;;;;;;46.33;21.85;;;7.20;99.90;;;;;;5052491;28;20060;-66
2021/11/16 00:21:58;;;;;;;47.15;21.15;;;7.20;99.90;;;;;;5052267;28;20049;-65
2021/11/16 00:24:36;;;;;;;46.13;21.20;;;7.20;99.90;;;;;;5052620;28;20057;-66
2021/11/16 00:27:04;;;;;;;44.00;20.17;;;7.20;99.90;;;;;;5051382;28;20098;-67
2021/11/16 00:29:31;;;;;;;42.65;19.88;;;7.30;99.90;;;;;;5052017;28;20053;-65
2021/11/16 00:31:58;;;;;;;44.38;20.92;;;7.30;99.90;;;;;;5051773;28;20057;-66
2021/11/16 00:34:26;;;;;;;50.20;22.10;;;7.20;99.90;;;;;;5051845;28;20045;-67
2021/11/16 00:36:53;;;;;;;47.30;20.77;;;7.20;99.90;;;;;;5050718;28;20586;-66
2021/11/16 00:39:21;;;;;;;50.90;21.90;;;7.20;99.90;;;;;;5051900;28;20114;-66
2021/11/16 00:41:48;;;;;;;49.47;20.83;;;7.30;99.90;;;;;;5051724;28;20045;-66
2021/11/16 00:44:15;;;;;;;46.53;20.73;;;7.30;99.90;;;;;;5051525;28;20045;-66
2021/11/16 00:46:42;;;;;;;48.75;21.95;;;7.30;99.90;;;;;;5043078;28;20142;-66
2021/11/16 00:49:09;;;;;;;46.22;20.17;;;7.30;99.90;;;;;;5051529;28;20119;-66
2021/11/16 00:51:37;;;;;;;48.88;20.42;;;7.20;99.90;;;;;;5051611;28;20091;-63
2021/11/16 00:54:04;;;;;;;43.30;20.45;;;7.30;99.90;;;;;;5051799;28;20464;-66
2021/11/16 00:56:31;;;;;;;41.65;21.25;;;7.20;99.90;;;;;;5050668;28;20053;-66
2021/11/16 00:58:58;;;;;;;48.47;21.25;;;7.20;99.90;;;;;;5051387;28;20088;-66
2021/11/16 01:01:25;;;;;;;41.47;19.75;;;7.20;99.90;;;;;;5051532;28;20057;-66
2021/11/16 01:03:53;;;;;;;40.38;19.67;;;7.20;99.90;;;;;;5050970;28;20191;-66
2021/11/16 01:06:20;;;;;;;45.08;21.67;;;7.10;99.90;;;;;;5050102;28;20543;-66
2021/11/16 01:08:48;;;;;;;46.70;22.13;;;7.10;99.90;;;;;;5050573;28;20053;-66
2021/11/16 01:11:16;;;;;;;47.03;21.50;;;7.10;99.90;;;;;;5051468;28;20057;-66
2021/11/16 01:13:43;;;;;;;47.10;22.15;;;7.10;99.90;;;;;;5051030;28;20096;-66
2021/11/16 01:16:10;;;;;;;49.95;22.67;;;7.10;99.90;;;;;;5050428;28;20049;-66
2021/11/16 01:18:38;;;;;;;42.13;22.02;;;7.10;99.90;;;;;;5050661;28;20424;-66
2021/11/16 01:21:06;;;;;;;47.22;22.15;;;7.10;99.90;;;;;;5050887;28;20493;-66
2021/11/16 01:23:33;;;;;;;46.13;20.88;;;7.00;99.90;;;;;;5050725;28;20103;-66
2021/11/16 01:26:02;;;;;;;50.95;22.52;;;7.00;99.90;;;;;;5050040;28;20060;-67
2021/11/16 01:28:29;;;;;;;52.88;23.42;;;6.90;99.90;;;;;;5050907;28;20097;-66
2021/11/16 01:31:00;;;;;;;49.67;22.38;;;7.00;99.90;;;;;;5050907;28;20061;-66
2021/11/16 01:33:28;;;;;;;45.40;21.60;;;7.00;99.90;;;;;;5050641;28;20144;-67
2021/11/16 01:35:56;;;;;;;57.95;23.25;;;6.90;99.90;;;;;;5049968;28;20063;-66
2021/11/16 01:38:24;;;;;;;54.85;23.88;;;6.90;99.90;;;;;;5050567;28;20048;-64
2021/11/16 01:40:52;;;;;;;46.33;21.77;;;6.90;99.90;;;;;;5050662;28;20057;-64
2021/11/16 01:43:21;;;;;;;47.05;21.90;;;6.90;99.90;;;;;;5050504;28;20048;-64
2021/11/16 01:45:48;;;;;;;51.33;22.63;;;6.90;99.90;;;;;;5049478;28;20144;-63
2021/11/16 01:48:15;;;;;;;48.35;22.50;;;6.90;99.90;;;;;;5050394;28;20107;-66
2021/11/16 01:50:44;;;;;;;46.72;21.00;;;6.90;99.90;;;;;;5050653;28;20103;-64
2021/11/16 01:53:11;;;;;;;52.00;23.17;;;6.90;99.90;;;;;;5050623;28;20562;-64
2021/11/16 01:55:40;;;;;;;45.67;22.75;;;6.90;99.90;;;;;;5052887;28;20057;-65
2021/11/16 01:58:07;;;;;;;40.95;20.52;;;6.80;99.90;;;;;;5050565;28;20501;-66
2021/11/16 02:00:38;;;;;;;54.47;23.23;;;6.90;99.90;;;;;;5050510;28;20102;-64
2021/11/16 02:03:07;;;;;;;46.72;23.00;;;6.90;99.90;;;;;;5050775;28;20049;-64
2021/11/16 02:05:40;;;;;;;48.00;21.60;;;6.90;99.90;;;;;;5050519;28;20055;-66
2021/11/16 02:08:11;;;;;;;46.92;21.48;;;6.90;99.90;;;;;;5051196;28;20463;-65
2021/11/16 02:10:41;;;;;;;47.10;22.13;;;6.90;99.90;;;;;;5050266;28;20469;-64
2021/11/16 02:13:08;;;;;;;44.50;21.85;;;6.80;99.90;;;;;;5050061;28;20053;-65
2021/11/16 02:15:38;;;;;;;46.08;21.17;;;6.80;99.90;;;;;;5049996;28;20053;-64
2021/11/16 02:18:05;;;;;;;42.85;20.08;;;6.90;99.90;;;;;;5049947;28;20083;-63
2021/11/16 02:20:34;;;;;;;49.20;21.65;;;6.80;99.90;;;;;;5048869;28;20712;-66
2021/11/16 02:23:02;;;;;;;51.33;21.58;;;6.80;99.90;;;;;;5049641;28;20497;-63
2021/11/16 02:25:30;;;;;;;50.60;22.13;;;6.80;99.90;;;;;;5049223;28;20477;-64
2021/11/16 02:27:57;;;;;;;45.17;21.45;;;6.80;99.90;;;;;;5049911;28;20456;-64
2021/11/16 02:30:25;;;;;;;45.67;22.30;;;6.80;99.90;;;;;;5049575;28;20460;-64
2021/11/16 02:32:52;;;;;;;45.72;21.48;;;6.80;99.90;;;;;;5049708;28;20049;-63
2021/11/16 02:35:21;;;;;;;47.80;21.40;;;6.80;99.90;;;;;;5049185;28;20041;-66
2021/11/16 02:37:49;;;;;;;49.88;21.15;;;6.70;99.90;;;;;;5050222;28;20122;-66
2021/11/16 02:40:16;;;;;;;48.00;22.08;;;6.80;99.90;;;;;;5051293;28;20092;-66
2021/11/16 02:42:44;;;;;;;43.85;21.67;;;6.80;99.90;;;;;;5049798;28;20110;-67
2021/11/16 02:45:13;;;;;;;48.05;21.45;;;6.80;99.90;;;;;;5049020;28;20524;-66
2021/11/16 02:47:40;;;;;;;48.40;21.05;;;6.90;99.90;;;;;;5049181;28;20092;-66
2021/11/16 02:50:08;;;;;;;46.35;21.05;;;6.80;99.90;;;;;;5049808;28;20102;-64
2021/11/16 02:52:37;;;;;;;52.88;23.20;;;6.80;99.90;;;;;;5049639;28;20076;-64
2021/11/16 02:55:06;;;;;;;49.33;21.85;;;6.80;99.90;;;;;;5049077;28;20103;-64
2021/11/16 02:57:33;;;;;;;50.15;21.02;;;6.80;99.90;;;;;;5049069;28;20111;-64
2021/11/16 03:00:01;;;;;;;47.92;22.45;;;6.80;99.90;;;;;;5049293;28;20102;-63
2021/11/16 03:02:28;;;;;;;47.92;22.55;;;6.80;99.90;;;;;;5049317;28;20095;-64
2021/11/16 03:04:55;;;;;;;45.15;21.92;;;6.80;99.90;;;;;;5049234;28;20053;-64
2021/11/16 03:07:32;;;;;;;52.92;23.52;;;6.80;99.90;;;;;;5048556;28;20509;-64
2021/11/16 03:09:59;;;;;;;50.65;23.35;;;6.80;99.90;;;;;;5049487;28;20056;-64
2021/11/16 03:12:29;;;;;;;51.30;23.02;;;6.90;99.90;;;;;;5049681;28;20292;-64
2021/11/16 03:14:56;;;;;;;56.85;24.02;;;6.90;99.90;;;;;;5049249;28;20394;-64
2021/11/16 03:17:25;;;;;;;53.30;23.55;;;6.80;99.90;;;;;;5048917;28;20056;-64
2021/11/16 03:19:52;;;;;;;48.60;23.17;;;6.90;99.90;;;;;;5049260;28;20134;-66
2021/11/16 03:22:22;;;;;;;51.00;22.98;;;6.90;99.90;;;;;;5048981;28;20049;-66
2021/11/16 03:24:49;;;;;;;53.47;23.75;;;6.80;99.90;;;;;;5049769;28;20476;-66
2021/11/16 03:27:17;;;;;;;44.65;20.17;;;6.80;99.90;;;;;;5049767;28;20049;-66
2021/11/16 03:29:48;;;;;;;47.20;22.02;;;6.70;99.90;;;;;;5050213;28;20049;-66
2021/11/16 03:32:18;;;;;;;49.33;21.60;;;6.80;99.90;;;;;;5052259;28;20093;-66
2021/11/16 03:34:46;;;;;;;47.05;21.40;;;6.60;99.90;;;;;;5052643;28;20049;-66
2021/11/16 03:37:14;;;;;;;46.65;21.52;;;6.70;99.90;;;;;;5052349;28;20057;-66
2021/11/16 03:39:41;;;;;;;47.92;21.63;;;6.70;99.90;;;;;;5044841;28;20053;-66
2021/11/16 03:42:09;;;;;;;46.00;21.45;;;6.80;99.90;;;;;;5052699;28;20466;-66
2021/11/16 03:44:38;;;;;;;50.97;21.88;;;6.70;99.90;;;;;;5052624;28;20057;-66
2021/11/16 03:47:07;;;;;;;51.35;22.63;;;6.80;99.90;;;;;;5051826;28;20057;-65
2021/11/16 03:49:34;;;;;;;47.38;21.35;;;6.70;99.90;;;;;;5052358;28;20497;-66
2021/11/16 03:52:01;;;;;;;46.25;22.02;;;6.70;99.90;;;;;;5052695;28;20502;-66
2021/11/16 03:54:28;;;;;;;46.50;22.10;;;6.70;99.90;;;;;;5052633;28;20053;-66
2021/11/16 03:57:00;;;;;;;55.00;23.30;;;6.60;99.90;;;;;;5051851;28;20049;-67
2021/11/16 03:59:28;;;;;;;55.47;23.02;;;6.70;99.90;;;;;;5052697;28;20460;-66
2021/11/16 04:01:56;;;;;;;50.08;23.23;;;6.70;99.90;;;;;;5044557;28;20452;-66
2021/11/16 04:04:24;;;;;;;48.72;23.58;;;6.80;99.90;;;;;;5042753;28;20122;-66
2021/11/16 04:06:51;;;;;;;52.53;23.17;;;6.70;99.90;;;;;;5051296;28;20092;-66
2021/11/16 04:09:18;;;;;;;51.53;23.88;;;6.80;99.90;;;;;;5051693;28;20339;-66
2021/11/16 04:11:45;;;;;;;60.75;25.50;;;6.80;99.90;;;;;;5051625;28;20045;-66
2021/11/16 04:14:12;;;;;;;56.55;24.27;;;6.80;99.90;;;;;;5051673;28;20045;-64
2021/11/16 04:16:39;;;;;;;50.03;22.45;;;6.80;99.90;;;;;;5050313;28;20076;-63
2021/11/16 04:19:06;;;;;;;48.75;22.10;;;6.80;99.90;;;;;;5051651;28;20119;-64
2021/11/16 04:21:35;;;;;;;47.35;22.20;;;6.80;99.90;;;;;;5057571;28;20086;-64
2021/11/16 04:24:02;;;;;;;51.88;22.85;;;6.70;99.90;;;;;;5036945;28;20089;-63
2021/11/16 04:26:29;;;;;;;45.67;21.52;;;6.70;99.90;;;;;;5030579;28;20045;-63
2021/11/16 04:28:56;;;;;;;46.67;21.08;;;6.60;99.90;;;;;;5031669;28;20602;-64
2021/11/16 04:31:23;;;;;;;45.60;20.40;;;6.60;99.90;;;;;;5031064;28;20057;-64
2021/11/16 04:33:50;;;;;;;52.75;22.48;;;6.60;99.90;;;;;;5031258;28;20494;-64
2021/11/16 04:36:18;;;;;;;49.75;22.60;;;6.60;99.90;;;;;;5030322;28;20053;-63
2021/11/16 04:38:47;;;;;;;46.17;21.35;;;6.70;99.90;;;;;;5031590;28;20541;-64
2021/11/16 04:41:14;;;;;;;46.08;22.05;;;6.60;99.90;;;;;;5031099;28;20563;-64
2021/11/16 04:43:41;;;;;;;49.25;22.20;;;6.60;99.90;;;;;;5021841;28;20046;-64
2021/11/16 04:46:09;;;;;;;49.20;20.48;;;6.60;99.90;;;;;;5030357;28;20053;-64
2021/11/16 04:48:57;;;;;;;59.08;23.38;;;6.70;99.90;;;;;;5031353;28;20057;-64
2021/11/16 04:59:55;;;;;;;52.80;21.90;;;6.70;99.90;;;;;;5086445;28;20448;-65
2021/11/16 05:02:38;;;;;;;49.15;20.98;;;6.70;99.90;;;;;;5086049;28;20044;-65
2021/11/16 05:05:09;;;;;;;53.70;23.92;;;6.60;99.90;;;;;;5086001;28;20063;-64
2021/11/16 05:07:37;;;;;;;54.42;25.33;;;6.60;99.90;;;;;;5086377;28;20067;-65
2021/11/16 05:10:07;;;;;;;52.90;24.15;;;6.60;99.90;;;;;;5086374;28;20048;-65
2021/11/16 05:12:36;;;;;;;52.75;24.38;;;6.60;99.90;;;;;;5086314;28;20044;-67
2021/11/16 05:15:07;;;;;;;53.75;22.92;;;6.60;99.90;;;;;;5085923;28;20404;-64
2021/11/16 05:17:34;;;;;;;53.13;22.80;;;6.70;99.90;;;;;;5086019;28;20114;-64
2021/11/16 05:20:01;;;;;;;52.40;23.63;;;6.70;99.90;;;;;;5087000;28;20044;-65
2021/11/16 05:22:28;;;;;;;54.88;25.10;;;6.60;99.90;;;;;;5086487;28;20047;-64
2021/11/16 05:24:55;;;;;;;55.80;24.73;;;6.60;99.90;;;;;;5085683;28;20484;-65
2021/11/16 05:27:24;;;;;;;62.72;26.20;;;6.70;99.90;;;;;;5084919;28;20080;-65
2021/11/16 05:29:51;;;;;;;55.03;23.17;;;6.70;99.90;;;;;;5085784;28;20396;-64
2021/11/16 05:32:18;;;;;;;53.45;24.65;;;6.70;99.90;;;;;;5085656;28;20048;-65
2021/11/16 05:34:46;;;;;;;55.17;24.38;;;6.70;99.90;;;;;;5085641;28;20451;-64
2021/11/16 05:37:14;;;;;;;49.95;22.27;;;6.70;99.90;;;;;;5085004;28;20103;-65
2021/11/16 05:39:41;;;;;;;54.15;24.00;;;6.70;99.90;;;;;;5085930;28;20084;-65
2021/11/16 12:49:04;;;;;;;59.55;27.05;;;8.30;99.90;;;;;;5079571;28;20051;-88
2021/11/16 12:51:34;;;;;;;66.25;26.95;;;8.40;99.90;;;;;;5079120;28;20079;-87
2021/11/16 12:54:04;;;;;;;64.70;28.20;;;8.30;99.90;;;;;;5075895;28;20068;-88
2021/11/16 12:57:11;;;;;;;62.85;26.98;;;8.20;99.90;;;;;;5079611;28;20131;-88
2021/11/16 12:59:57;;;;;;;61.78;26.67;;;8.20;99.90;;;;;;5075873;28;20056;-88
2021/11/16 13:02:32;;;;;;;58.65;26.10;;;8.20;99.90;;;;;;5078715;28;20052;-88
2021/11/16 13:05:03;;;;;;;63.28;27.60;;;8.30;99.90;;;;;;5079271;28;20045;-88
2021/11/16 13:07:33;;;;;;;67.65;27.75;;;8.30;99.90;;;;;;5080174;28;20048;-88
2021/11/16 13:10:08;;;;;;;59.17;26.10;;;8.20;99.90;;;;;;5079277;28;20068;-88
2021/11/16 13:12:48;;;;;;;62.95;26.70;;;8.30;99.90;;;;;;5079715;28;20079;-88
2021/11/16 17:42:41;;;;;;;57.50;25.75;;;7.20;99.90;;;;;;5123169;22;20083;-67
2021/11/16 17:45:09;;;;;;;64.93;28.33;;;7.30;99.90;;;;;;5029633;28;20093;-67
2021/11/16 17:47:36;;;;;;;59.58;26.27;;;7.30;99.90;;;;;;5030237;28;20497;-67
2021/11/16 17:50:04;;;;;;;60.28;27.42;;;7.30;99.90;;;;;;5030339;28;20054;-67
2021/11/16 17:52:31;;;;;;;64.32;26.80;;;7.30;99.90;;;;;;5030972;28;20141;-67
2021/11/16 17:54:59;;;;;;;86.38;35.28;;;7.20;99.90;;;;;;5029768;28;20050;-67
2021/11/16 17:57:26;;;;;;;70.85;30.02;;;7.30;99.90;;;;;;5029654;28;20058;-67
2021/11/16 17:59:54;;;;;;;61.35;28.40;;;7.20;99.90;;;;;;5030494;28;20045;-67
2021/11/16 18:02:23;;;;;;;72.93;28.95;;;7.20;99.90;;;;;;5033699;28;20076;-67
2021/11/16 18:04:53;;;;;;;58.22;25.33;;;7.20;99.90;;;;;;5033922;28;20128;-67
2021/11/16 18:10:06;;;;;;;60.85;26.27;;;7.20;99.90;;;;;;5033753;28;20215;-67
2021/11/16 18:12:35;;;;;;;71.82;30.25;;;7.20;99.90;;;;;;5033386;28;20053;-67
2021/11/16 18:15:07;;;;;;;59.95;28.23;;;7.10;99.90;;;;;;5033290;28;20417;-67
2021/11/16 18:17:34;;;;;;;64.03;29.02;;;7.00;99.90;;;;;;5033637;28;20413;-67
2021/11/16 18:20:03;;;;;;;66.65;28.02;;;7.10;99.90;;;;;;5034004;28;20057;-67
2021/11/16 18:22:30;;;;;;;56.47;27.77;;;7.10;99.90;;;;;;5033828;28;20061;-67
2021/11/16 18:24:57;;;;;;;60.53;26.92;;;7.10;99.90;;;;;;5033595;28;20061;-67
2021/11/16 18:27:25;;;;;;;62.10;27.42;;;7.10;99.90;;;;;;5033222;28;20053;-67
2021/11/16 18:29:55;;;;;;;60.40;27.45;;;7.10;99.90;;;;;;5033559;28;20075;-67
2021/11/16 18:32:24;;;;;;;67.70;28.92;;;7.10;99.90;;;;;;5033939;28;20468;-67
2021/11/16 18:34:51;;;;;;;65.70;28.23;;;7.10;99.90;;;;;;5033743;28;20050;-67
2021/11/16 18:37:18;;;;;;;63.22;28.95;;;7.10;99.90;;;;;;5032947;28;20092;-67
2021/11/16 18:39:47;;;;;;;62.03;27.52;;;7.10;99.90;;;;;;5033061;28;20050;-67
2021/11/16 18:42:17;;;;;;;59.45;27.95;;;6.90;99.90;;;;;;5033668;28;20055;-68
2021/11/16 18:44:48;;;;;;;59.90;28.60;;;7.00;99.90;;;;;;5033500;28;20054;-67
2021/11/16 18:47:20;;;;;;;67.68;29.10;;;7.00;99.90;;;;;;5032657;28;20333;-68
2021/11/16 18:49:53;;;;;;;65.60;29.17;;;7.10;99.90;;;;;;5033491;28;20142;-67
2021/11/16 18:52:20;;;;;;;59.30;28.63;;;7.10;99.90;;;;;;5033524;28;20149;-67
2021/11/16 18:54:49;;;;;;;65.15;29.17;;;7.10;99.90;;;;;;5033363;28;20057;-67
2021/11/16 18:57:21;;;;;;;65.43;29.48;;;7.10;99.90;;;;;;5032925;28;20057;-67
2021/11/16 18:59:51;;;;;;;62.88;28.73;;;7.10;99.90;;;;;;5032963;28;20512;-67
2021/11/16 19:02:18;;;;;;;58.90;29.02;;;7.10;99.90;;;;;;5033832;28;20053;-67
2021/11/16 19:04:45;;;;;;;57.60;26.67;;;7.10;99.90;;;;;;5033957;28;20402;-67
2021/11/16 19:07:14;;;;;;;60.67;28.42;;;7.00;99.90;;;;;;5025343;28;20053;-67
2021/11/16 19:09:42;;;;;;;66.00;27.88;;;6.90;99.90;;;;;;5033824;28;20099;-68
2021/11/16 19:12:11;;;;;;;56.80;26.60;;;6.90;99.90;;;;;;5032851;28;20076;-67
2021/11/16 19:14:39;;;;;;;63.97;27.77;;;7.00;99.90;;;;;;5032728;28;20072;-67
2021/11/16 19:17:08;;;;;;;69.03;28.33;;;7.00;99.90;;;;;;5032754;28;20089;-67
2021/11/16 19:19:40;;;;;;;62.05;28.55;;;7.10;99.90;;;;;;5032552;28;20053;-67
2021/11/16 19:22:08;;;;;;;69.97;29.90;;;7.10;99.90;;;;;;5032682;28;20065;-67
2021/11/16 19:24:42;;;;;;;58.60;27.42;;;7.00;99.90;;;;;;5032743;28;20053;-68
2021/11/16 19:27:13;;;;;;;63.22;28.85;;;7.10;99.90;;;;;;5032589;28;20061;-67
2021/11/16 19:29:43;;;;;;;63.42;28.75;;;7.10;99.90;;;;;;5031760;28;20053;-67
2021/11/16 19:32:11;;;;;;;62.80;27.27;;;7.10;99.90;;;;;;5032079;28;20080;-68
2021/11/16 19:34:38;;;;;;;58.75;28.38;;;7.10;99.90;;;;;;5034343;28;20408;-68
2021/11/16 19:37:09;;;;;;;62.95;28.42;;;7.10;99.90;;;;;;5031297;28;20103;-67
2021/11/16 19:39:42;;;;;;;61.55;28.00;;;7.10;99.90;;;;;;5032152;28;20086;-68
2021/11/16 19:42:11;;;;;;;70.68;28.88;;;7.10;99.90;;;;;;5031857;28;20389;-68
2021/11/16 19:44:38;;;;;;;66.88;28.92;;;7.00;99.90;;;;;;5032092;28;20076;-68
2021/11/16 19:47:05;;;;;;;66.35;28.92;;;7.00;99.90;;;;;;5031556;28;20100;-67
2021/11/16 19:49:32;;;;;;;60.30;27.75;;;7.00;99.90;;;;;;5032193;28;20053;-68
2021/11/16 19:52:00;;;;;;;62.28;27.80;;;7.00;99.90;;;;;;5031787;28;20057;-67
2021/11/16 19:54:27;;;;;;;66.40;28.02;;;7.00;99.90;;;;;;5031226;28;20099;-67
2021/11/16 19:56:55;;;;;;;66.32;30.75;;;7.00;99.90;;;;;;5031107;28;20140;-68
2021/11/16 19:59:23;;;;;;;63.72;28.35;;;6.90;99.90;;;;;;5031447;28;20046;-68
2021/11/16 20:01:50;;;;;;;64.57;28.02;;;6.90;99.90;;;;;;5032126;28;20498;-67
2021/11/16 20:04:17;;;;;;;62.92;27.55;;;6.80;99.90;;;;;;5031854;28;20245;-68
2021/11/16 20:06:44;;;;;;;65.25;28.40;;;6.90;99.90;;;;;;5035632;28;20053;-68
2021/11/16 20:09:12;;;;;;;64.00;27.80;;;6.90;99.90;;;;;;5037857;28;20454;-68
2021/11/16 20:11:42;;;;;;;58.80;26.42;;;6.80;99.90;;;;;;5034866;28;20123;-67
2021/11/16 20:14:10;;;;;;;59.67;26.25;;;6.80;99.90;;;;;;5031391;28;20576;-68
2021/11/16 20:16:40;;;;;;;60.17;26.48;;;6.90;99.90;;;;;;5030477;28;20064;-68
2021/11/16 20:19:07;;;;;;;63.05;26.88;;;6.80;99.90;;;;;;5031057;28;20128;-67
2021/11/16 20:21:35;;;;;;;60.53;25.77;;;6.80;99.90;;;;;;5030775;28;20061;-68
2021/11/16 20:24:03;;;;;;;66.97;28.48;;;6.90;99.90;;;;;;5029963;28;20395;-67
2021/11/16 20:26:32;;;;;;;62.85;27.05;;;6.90;99.90;;;;;;5029831;28;20045;-67
2021/11/16 20:29:02;;;;;;;61.47;27.00;;;6.90;99.90;;;;;;5030599;28;20062;-67
2021/11/16 20:31:33;;;;;;;66.93;29.60;;;6.90;99.90;;;;;;5030397;28;20049;-67
2021/11/16 20:34:04;;;;;;;68.15;28.40;;;6.80;99.90;;;;;;5030376;28;20046;-68
2021/11/16 20:36:32;;;;;;;64.47;27.48;;;6.80;99.90;;;;;;5032816;28;20406;-68
2021/11/16 20:39:19;;;;;;;64.07;28.02;;;6.80;99.90;;;;;;5031873;28;20398;-68
2021/11/16 20:42:06;;;;;;;58.83;25.98;;;6.70;99.90;;;;;;5030606;28;20057;-67
2021/11/16 20:44:51;;;;;;;66.18;27.50;;;6.80;99.90;;;;;;5030905;28;20057;-67
2021/11/16 21:01:06;;;;;;;65.18;25.63;;;6.70;99.90;;;;;;5030056;28;20162;-67
2021/11/16 21:03:35;;;;;;;65.15;26.58;;;6.60;99.90;;;;;;5029926;28;20053;-67
2021/11/16 21:06:04;;;;;;;69.05;26.60;;;6.70;99.90;;;;;;5029889;28;20057;-67
2021/11/16 21:08:31;;;;;;;64.43;24.80;;;6.70;99.90;;;;;;5030370;28;20393;-67
2021/11/16 21:10:59;;;;;;;65.00;26.45;;;6.60;99.90;;;;;;5030269;28;20049;-67
2021/11/16 21:13:26;;;;;;;65.40;25.30;;;6.60;99.90;;;;;;5029833;28;20453;-67
2021/11/16 21:15:53;;;;;;;66.68;26.58;;;6.60;99.90;;;;;;5029403;28;20495;-67
2021/11/16 21:18:20;;;;;;;66.35;26.73;;;6.70;99.90;;;;;;5029731;28;20057;-67
2021/11/16 21:20:48;;;;;;;65.60;26.23;;;6.60;99.90;;;;;;5029799;28;20103;-67
2021/11/16 21:23:15;;;;;;;66.50;27.33;;;6.60;99.90;;;;;;5029760;28;20045;-66
2021/11/16 21:25:42;;;;;;;71.50;28.25;;;6.60;99.90;;;;;;5029642;28;20053;-67
2021/11/16 21:28:11;;;;;;;66.28;26.63;;;6.50;99.90;;;;;;5029917;28;20112;-67
2021/11/16 21:30:41;;;;;;;67.93;26.65;;;6.50;99.90;;;;;;5030206;28;20053;-67
2021/11/16 21:33:08;;;;;;;63.42;25.63;;;6.50;99.90;;;;;;5029642;28;20064;-67
2021/11/16 21:35:35;;;;;;;60.47;25.33;;;6.50;99.90;;;;;;5030930;28;20049;-67
2021/11/16 21:38:04;;;;;;;66.72;25.77;;;6.50;99.90;;;;;;5033773;28;20050;-67
2021/11/16 21:40:31;;;;;;;69.10;26.33;;;6.50;99.90;;;;;;5034216;28;20050;-67
2021/11/16 21:43:00;;;;;;;66.15;25.83;;;6.50;99.90;;;;;;5033796;28;20135;-67
2021/11/16 21:45:27;;;;;;;66.15;27.05;;;6.50;99.90;;;;;;5034265;28;20556;-67
2021/11/16 21:47:54;;;;;;;66.55;27.30;;;6.50;99.90;;;;;;5034277;28;20127;-67
2021/11/16 21:50:22;;;;;;;70.30;25.45;;;6.40;99.90;;;;;;5033612;28;20096;-67
2021/11/16 21:52:49;;;;;;;67.60;25.38;;;6.50;99.90;;;;;;5033452;28;20057;-67
2021/11/16 21:55:17;;;;;;;66.13;25.20;;;6.40;99.90;;;;;;5033648;28;20049;-67
2021/11/16 21:57:45;;;;;;;76.00;26.42;;;6.40;99.90;;;;;;5035006;28;20099;-67
2021/11/16 22:00:14;;;;;;;71.25;26.60;;;6.50;99.90;;;;;;5025516;28;20046;-67
2021/11/16 22:02:41;;;;;;;71.97;27.05;;;6.50;99.90;;;;;;5033607;28;20115;-67
2021/11/16 22:05:10;;;;;;;68.63;27.38;;;6.50;99.90;;;;;;5033261;28;20111;-67
2021/11/16 22:07:46;;;;;;;69.53;25.90;;;6.50;99.90;;;;;;5033234;28;20072;-67
2021/11/16 22:10:15;;;;;;;64.88;25.15;;;6.40;99.90;;;;;;5033307;28;20088;-66
2021/11/16 22:12:45;;;;;;;63.55;24.25;;;6.40;99.90;;;;;;5033103;28;20053;-67
2021/11/16 22:15:13;;;;;;;61.25;24.27;;;6.40;99.90;;;;;;5032812;28;20061;-67
2021/11/16 22:17:40;;;;;;;63.97;23.00;;;6.40;99.90;;;;;;5033207;28;20057;-67
2021/11/16 22:20:09;;;;;;;67.88;24.65;;;6.40;99.90;;;;;;5033149;28;20498;-67
2021/11/16 22:22:39;;;;;;;63.53;24.92;;;6.40;99.90;;;;;;5032994;28;20222;-67
2021/11/16 22:25:06;;;;;;;65.07;23.88;;;6.40;99.90;;;;;;5032570;28;20046;-67
2021/11/16 22:27:33;;;;;;;64.38;23.73;;;6.30;99.90;;;;;;5032508;28;20453;-67
2021/11/16 22:30:05;;;;;;;67.90;23.15;;;6.40;99.90;;;;;;5032834;28;20136;-67
2021/11/16 22:32:34;;;;;;;62.78;23.92;;;6.50;99.90;;;;;;5032669;28;20583;-67
2021/11/16 22:35:08;;;;;;;64.55;23.58;;;6.50;99.90;;;;;;5032253;28;20076;-67
2021/11/16 22:37:36;;;;;;;69.63;25.30;;;6.40;99.90;;;;;;5032519;28;20133;-67
2021/11/16 22:40:05;;;;;;;69.20;26.65;;;6.40;99.90;;;;;;5032619;28;20399;-67
2021/11/16 22:42:32;;;;;;;62.72;25.20;;;6.30;99.90;;;;;;5032333;28;20510;-67
2021/11/16 22:44:59;;;;;;;68.63;27.25;;;6.30;99.90;;;;;;5032502;28;20053;-67
2021/11/16 22:47:28;;;;;;;68.07;23.83;;;6.30;99.90;;;;;;5032149;28;20049;-67
2021/11/16 22:49:55;;;;;;;62.65;23.17;;;6.30;99.90;;;;;;5032304;28;20575;-67
2021/11/16 22:52:23;;;;;;;55.17;21.55;;;6.20;99.90;;;;;;5032225;28;20053;-67
2021/11/16 22:54:50;;;;;;;61.78;22.98;;;6.20;99.90;;;;;;5031990;28;20041;-67
2021/11/16 22:57:17;;;;;;;62.83;22.98;;;6.20;99.90;;;;;;5032005;28;20346;-66
2021/11/16 23:00:24;;;;;;;64.90;22.20;;;6.20;99.90;;;;;;5032544;28;20513;-67
